createdAt,value
2022-09-25T00:01:12.106Z,16.91
2022-09-25T00:03:39.918Z,16.89
2022-09-25T00:06:09.890Z,16.89
2022-09-25T00:08:37.485Z,16.89
2022-09-25T00:11:16.421Z,16.88
2022-09-25T00:13:44.745Z,16.88
2022-09-25T00:16:15.372Z,16.88
2022-09-25T00:19:01.234Z,16.87
2022-09-25T00:21:31.624Z,16.86
2022-09-25T00:24:04.627Z,16.84
2022-09-25T00:26:35.015Z,16.83
2022-09-25T00:29:03.221Z,16.83
2022-09-25T00:31:31.178Z,16.81
2022-09-25T00:34:03.542Z,16.81
2022-09-25T00:36:31.064Z,16.81
2022-09-25T00:38:58.579Z,16.79
2022-09-25T00:41:27.655Z,16.79
2022-09-25T00:43:56.574Z,16.77
2022-09-25T00:46:30.051Z,16.76
2022-09-25T00:49:13.225Z,16.75
2022-09-25T00:51:46.713Z,16.77
2022-09-25T00:54:18.635Z,16.74
2022-09-25T00:56:48.971Z,16.74
2022-09-25T00:59:23.088Z,16.72
2022-09-25T01:01:50.011Z,16.72
2022-09-25T01:04:18.605Z,16.70
2022-09-25T01:06:45.869Z,16.71
2022-09-25T01:09:12.801Z,16.70
2022-09-25T01:11:39.637Z,16.67
2022-09-25T01:14:08.840Z,16.69
2022-09-25T01:16:45.754Z,16.67
2022-09-25T01:19:39.892Z,16.66
2022-09-25T01:22:12.378Z,16.68
2022-09-25T01:24:48.176Z,16.66
2022-09-25T01:27:24.089Z,16.67
2022-09-25T01:30:04.660Z,16.66
2022-09-25T01:32:51.940Z,16.65
2022-09-25T01:35:33.927Z,16.65
2022-09-25T01:38:41.796Z,16.64
2022-09-25T01:41:30.648Z,16.63
2022-09-25T01:43:59.103Z,16.63
2022-09-25T01:46:33.818Z,16.61
2022-09-25T01:49:09.720Z,16.61
2022-09-25T01:51:42.460Z,16.60
2022-09-25T01:54:13.432Z,16.60
2022-09-25T01:56:48.525Z,16.59
2022-09-25T01:59:34.748Z,16.58
2022-09-25T02:02:04.761Z,16.58
2022-09-25T02:04:43.221Z,16.57
2022-09-25T02:07:14.696Z,16.57
2022-09-25T02:09:47.710Z,16.55
2022-09-25T02:12:26.044Z,16.55
2022-09-25T02:15:03.083Z,16.55
2022-09-25T02:17:54.083Z,16.52
2022-09-25T02:20:32.988Z,16.52
2022-09-25T02:23:08.714Z,16.51
2022-09-25T02:25:53.114Z,16.51
2022-09-25T02:28:20.072Z,16.49
2022-09-25T02:30:47.754Z,16.50
2022-09-25T02:33:14.696Z,16.50
2022-09-25T02:35:42.548Z,16.50
2022-09-25T02:38:09.801Z,16.49
2022-09-25T02:41:12.399Z,16.47
2022-09-25T02:44:10.801Z,16.47
2022-09-25T02:46:56.170Z,16.45
2022-09-25T02:49:59.514Z,16.46
2022-09-25T02:52:50.173Z,16.43
2022-09-25T02:55:31.137Z,16.42
2022-09-25T02:58:12.124Z,16.43
2022-09-25T03:00:41.038Z,16.43
2022-09-25T03:03:11.708Z,16.42
2022-09-25T03:05:39.431Z,16.39
2022-09-25T03:08:25.854Z,16.39
2022-09-25T03:10:52.702Z,16.38
2022-09-25T03:13:26.691Z,16.38
2022-09-25T03:15:59.229Z,16.37
2022-09-25T03:18:26.784Z,16.35
2022-09-25T03:20:53.640Z,16.37
2022-09-25T03:23:20.706Z,16.38
2022-09-25T03:25:50.367Z,16.36
2022-09-25T03:28:17.458Z,16.36
2022-09-25T03:30:44.733Z,16.37
2022-09-25T03:33:12.892Z,16.36
2022-09-25T03:35:40.614Z,16.33
2022-09-25T03:38:10.646Z,16.34
2022-09-25T03:40:37.608Z,16.33
2022-09-25T03:45:30.268Z,16.32
2022-09-25T03:47:57.110Z,16.34
2022-09-25T03:50:23.930Z,16.33
2022-09-25T03:52:50.726Z,16.33
2022-09-25T03:55:17.686Z,16.32
2022-09-25T03:57:44.486Z,16.31
2022-09-25T04:00:11.934Z,16.30
2022-09-25T04:02:38.920Z,16.29
2022-09-25T04:05:06.362Z,16.28
2022-09-25T04:07:33.183Z,16.29
2022-09-25T04:10:00.010Z,16.28
2022-09-25T04:12:26.945Z,16.27
2022-09-25T04:14:54.148Z,16.27
2022-09-25T04:17:21.460Z,16.26
2022-09-25T04:19:48.275Z,16.26
2022-09-25T04:22:15.093Z,16.26
2022-09-25T04:24:50.952Z,16.25
2022-09-25T04:27:21.929Z,16.25
2022-09-25T04:29:49.693Z,16.23
2022-09-25T04:32:36.001Z,16.24
2022-09-25T04:35:02.962Z,16.22
2022-09-25T04:37:29.895Z,16.22
2022-09-25T04:39:57.757Z,16.22
2022-09-25T04:42:25.647Z,16.21
2022-09-25T04:44:54.787Z,16.22
2022-09-25T04:47:27.105Z,16.21
2022-09-25T04:49:53.975Z,16.22
2022-09-25T04:52:20.971Z,16.18
2022-09-25T04:54:48.426Z,16.18
2022-09-25T04:57:45.557Z,16.16
2022-09-25T05:00:08.236Z,16.16
2022-09-25T05:02:35.179Z,16.15
2022-09-25T05:05:02.241Z,16.15
2022-09-25T05:07:29.129Z,16.14
2022-09-25T05:09:56.073Z,16.12
2022-09-25T05:12:22.960Z,16.12
2022-09-25T05:14:50.224Z,16.11
2022-09-25T05:17:17.096Z,16.12
2022-09-25T05:19:43.902Z,16.11
2022-09-25T05:22:10.759Z,16.11
2022-09-25T05:24:38.677Z,16.10
2022-09-25T05:27:05.571Z,16.11
2022-09-25T05:29:32.412Z,16.11
2022-09-25T05:31:59.791Z,16.10
2022-09-25T05:34:27.055Z,16.09
2022-09-25T05:36:53.948Z,16.09
2022-09-25T05:39:20.779Z,16.09
2022-09-25T05:41:47.571Z,16.09
2022-09-25T05:44:15.189Z,16.08
2022-09-25T05:46:42.482Z,16.08
2022-09-25T05:49:09.496Z,16.03
2022-09-25T05:51:36.366Z,16.07
2022-09-25T05:54:03.373Z,16.04
2022-09-25T05:56:30.825Z,16.04
2022-09-25T05:58:58.825Z,16.03
2022-09-25T06:01:26.411Z,16.05
2022-09-25T06:03:53.312Z,16.01
2022-09-25T06:06:23.780Z,15.97
2022-09-25T06:08:54.842Z,15.99
2022-09-25T06:11:22.610Z,16.01
2022-09-25T06:13:54.218Z,16.02
2022-09-25T06:16:21.645Z,16.04
2022-09-25T06:18:48.812Z,16.04
2022-09-25T06:21:15.760Z,16.01
2022-09-25T06:23:45.632Z,15.92
2022-09-25T06:26:14.405Z,15.77
2022-09-25T06:28:41.453Z,15.77
2022-09-25T06:31:08.451Z,15.83
2022-09-25T06:33:35.421Z,15.91
2022-09-25T06:36:02.537Z,15.93
2022-09-25T06:38:29.476Z,15.93
2022-09-25T06:40:59.880Z,15.92
2022-09-25T06:43:28.302Z,15.95
2022-09-25T06:45:55.275Z,15.98
2022-09-25T06:48:22.585Z,16.01
2022-09-25T06:50:52.992Z,16.01
2022-09-25T06:53:22.057Z,16.03
2022-09-25T06:55:49.877Z,16.03
2022-09-25T06:58:23.002Z,15.99
2022-09-25T07:00:51.583Z,15.91
2022-09-25T07:03:37.412Z,15.82
2022-09-25T07:06:06.313Z,15.76
2022-09-25T07:08:33.743Z,15.72
2022-09-25T07:11:02.363Z,15.74
2022-09-25T07:13:31.808Z,15.81
2022-09-25T07:16:01.100Z,15.86
2022-09-25T07:18:29.703Z,15.86
2022-09-25T07:21:11.358Z,15.90
2022-09-25T07:23:38.741Z,15.94
2022-09-25T07:26:14.224Z,15.97
2022-09-25T07:28:42.735Z,16.00
2022-09-25T07:31:18.368Z,16.02
2022-09-25T07:33:46.462Z,16.06
2022-09-25T07:36:14.829Z,16.09
2022-09-25T07:38:42.109Z,16.13
2022-09-25T07:41:13.331Z,16.16
2022-09-25T07:43:40.471Z,16.16
2022-09-25T07:46:07.449Z,16.22
2022-09-25T07:48:34.487Z,16.23
2022-09-25T07:51:22.277Z,16.26
2022-09-25T07:53:49.474Z,16.28
2022-09-25T07:56:17.771Z,16.27
2022-09-25T07:58:45.482Z,16.29
2022-09-25T08:01:13.577Z,16.31
2022-09-25T08:03:40.687Z,16.33
2022-09-25T08:06:11.978Z,16.34
2022-09-25T08:08:40.274Z,16.37
2022-09-25T08:11:11.621Z,16.36
2022-09-25T08:13:39.568Z,16.37
2022-09-25T08:16:13.802Z,16.38
2022-09-25T08:18:42.994Z,16.28
2022-09-25T08:21:11.071Z,16.26
2022-09-25T08:23:37.920Z,16.25
2022-09-25T08:26:04.839Z,16.23
2022-09-25T08:28:31.719Z,16.17
2022-09-25T08:31:00.071Z,16.17
2022-09-25T08:33:27.459Z,16.08
2022-09-25T08:35:59.606Z,16.04
2022-09-25T08:38:27.537Z,16.05
2022-09-25T08:41:06.249Z,16.02
2022-09-25T08:43:38.036Z,16.01
2022-09-25T08:46:33.202Z,15.94
2022-09-25T08:49:03.201Z,15.90
2022-09-25T08:51:32.845Z,15.87
2022-09-25T08:54:00.975Z,15.87
2022-09-25T08:56:29.670Z,15.90
2022-09-25T08:59:04.887Z,15.85
2022-09-25T09:01:46.544Z,15.84
2022-09-25T09:04:24.682Z,15.79
2022-09-25T09:07:24.733Z,15.78
2022-09-25T09:10:14.173Z,15.84
2022-09-25T09:12:45.906Z,15.86
2022-09-25T09:15:45.339Z,15.88
2022-09-25T09:18:23.905Z,15.86
2022-09-25T09:20:56.720Z,15.90
2022-09-25T09:23:50.152Z,15.97
2022-09-25T09:26:28.334Z,16.03
2022-09-25T09:29:02.918Z,16.07
2022-09-25T09:31:30.065Z,16.12
2022-09-25T09:34:53.493Z,16.16
2022-09-25T09:37:31.846Z,16.21
2022-09-25T09:40:20.537Z,16.22
2022-09-25T09:43:13.503Z,16.27
2022-09-25T09:46:27.025Z,16.28
2022-09-25T09:48:59.962Z,16.30
2022-09-25T09:51:44.735Z,16.33
2022-09-25T09:54:21.714Z,16.37
2022-09-25T09:56:51.532Z,16.38
2022-09-25T09:59:37.354Z,16.44
2022-09-25T10:02:25.444Z,16.47
2022-09-25T10:04:54.266Z,16.50
2022-09-25T10:07:23.815Z,16.54
2022-09-25T10:09:51.070Z,16.56
2022-09-25T10:12:33.997Z,16.56
2022-09-25T10:15:06.263Z,16.59
2022-09-25T10:17:38.257Z,16.62
2022-09-25T10:20:18.384Z,16.65
2022-09-25T10:22:47.267Z,16.68
2022-09-25T10:25:14.570Z,16.67
2022-09-25T10:27:48.121Z,16.69
2022-09-25T10:30:21.110Z,16.71
2022-09-25T10:33:04.698Z,16.73
2022-09-25T10:35:37.577Z,16.74
2022-09-25T10:38:06.161Z,16.75
2022-09-25T10:40:38.500Z,16.79
2022-09-25T10:43:21.173Z,16.80
2022-09-25T10:45:55.918Z,16.82
2022-09-25T10:48:53.288Z,16.84
2022-09-25T10:51:21.752Z,16.87
2022-09-25T10:53:50.863Z,16.90
2022-09-25T10:56:24.600Z,16.91
2022-09-25T10:58:58.357Z,16.91
2022-09-25T11:01:55.146Z,16.92
2022-09-25T11:04:25.095Z,16.92
2022-09-25T11:07:17.289Z,16.94
2022-09-25T11:09:45.591Z,16.97
2022-09-25T11:12:23.923Z,17.00
2022-09-25T11:15:17.497Z,16.99
2022-09-25T11:17:47.077Z,17.02
2022-09-25T11:20:16.859Z,17.02
2022-09-25T11:22:53.103Z,17.02
2022-09-25T11:25:57.568Z,17.01
2022-09-25T11:28:45.792Z,17.05
2022-09-25T11:31:25.870Z,17.08
2022-09-25T11:34:17.549Z,17.07
2022-09-25T11:37:14.101Z,17.09
2022-09-25T11:40:11.798Z,17.10
2022-09-25T11:42:58.639Z,17.10
2022-09-25T11:45:37.303Z,17.11
2022-09-25T11:48:21.676Z,17.12
2022-09-25T11:51:27.538Z,17.12
2022-09-25T11:54:31.835Z,17.15
2022-09-25T11:57:05.328Z,17.15
2022-09-25T11:59:47.417Z,17.15
2022-09-25T12:02:44.907Z,17.17
2022-09-25T12:05:42.704Z,17.19
2022-09-25T12:08:24.337Z,17.18
2022-09-25T12:11:17.123Z,17.18
2022-09-25T12:13:45.239Z,17.20
2022-09-25T12:16:19.031Z,17.19
2022-09-25T12:18:52.049Z,17.20
2022-09-25T12:21:48.259Z,17.20
2022-09-25T12:24:38.259Z,17.23
2022-09-25T12:27:17.467Z,17.23
2022-09-25T12:29:53.764Z,17.22
2022-09-25T12:32:43.445Z,17.25
2022-09-25T12:35:22.465Z,17.24
2022-09-25T12:38:29.433Z,17.24
2022-09-25T12:41:30.776Z,17.22
2022-09-25T12:44:07.098Z,17.23
2022-09-25T12:46:57.837Z,17.25
2022-09-25T12:49:59.972Z,17.27
2022-09-25T12:52:48.335Z,17.27
2022-09-25T12:55:22.363Z,17.28
2022-09-25T12:58:05.099Z,17.26
2022-09-25T13:00:35.157Z,17.23
2022-09-25T13:03:12.140Z,17.24
2022-09-25T13:05:45.886Z,17.25
2022-09-25T13:08:39.898Z,17.27
2022-09-25T13:11:19.506Z,17.29
2022-09-25T13:13:53.966Z,17.27
2022-09-25T13:16:22.438Z,17.29
2022-09-25T13:19:11.655Z,17.30
2022-09-25T13:21:46.203Z,17.32
2022-09-25T13:24:17.988Z,17.34
2022-09-25T13:26:53.845Z,17.35
2022-09-25T13:29:29.371Z,17.37
2022-09-25T13:32:13.555Z,17.40
2022-09-25T13:34:42.451Z,17.43
2022-09-25T13:37:18.422Z,17.46
2022-09-25T13:40:08.547Z,17.50
2022-09-25T13:42:44.358Z,17.51
2022-09-25T13:45:30.679Z,17.59
2022-09-25T13:48:06.047Z,17.60
2022-09-25T13:50:45.546Z,17.65
2022-09-25T13:53:21.273Z,17.68
2022-09-25T13:55:48.280Z,17.72
2022-09-25T13:58:18.277Z,17.75
2022-09-25T14:00:56.182Z,17.78
2022-09-25T14:03:44.802Z,17.84
2022-09-25T14:06:19.339Z,17.88
2022-09-25T14:08:48.386Z,17.89
2022-09-25T14:11:20.066Z,17.92
2022-09-25T14:13:50.980Z,17.95
2022-09-25T14:16:37.520Z,18.02
2022-09-25T14:19:06.040Z,18.05
2022-09-25T14:21:36.180Z,18.09
2022-09-25T14:24:29.420Z,18.12
2022-09-25T14:27:04.087Z,18.17
2022-09-25T14:29:38.560Z,18.21
2022-09-25T14:32:53.556Z,18.23
2022-09-25T14:35:25.370Z,18.26
2022-09-25T14:38:07.133Z,18.30
2022-09-25T14:40:43.798Z,18.32
2022-09-25T14:43:46.213Z,18.33
2022-09-25T14:46:20.452Z,18.33
2022-09-25T14:49:01.977Z,18.37
2022-09-25T14:51:41.508Z,18.40
2022-09-25T14:54:15.669Z,18.44
2022-09-25T14:56:47.305Z,18.44
2022-09-25T14:59:20.369Z,18.45
2022-09-25T15:01:52.977Z,18.46
2022-09-25T15:04:29.431Z,18.46
2022-09-25T15:07:15.890Z,18.49
2022-09-25T15:09:48.723Z,18.48
2022-09-25T15:12:31.725Z,18.42
2022-09-25T15:15:03.194Z,18.41
2022-09-25T15:17:33.221Z,18.41
2022-09-25T15:20:08.474Z,18.42
2022-09-25T15:22:39.600Z,18.45
2022-09-25T15:25:08.499Z,18.46
2022-09-25T15:27:43.335Z,18.50
2022-09-25T15:30:20.206Z,18.55
2022-09-25T15:32:51.688Z,18.58
2022-09-25T15:35:25.123Z,18.61
2022-09-25T15:38:06.692Z,18.66
2022-09-25T15:40:35.187Z,18.69
2022-09-25T15:43:03.235Z,18.72
2022-09-25T15:45:33.428Z,18.74
2022-09-25T15:48:03.160Z,18.77
2022-09-25T15:50:30.476Z,18.84
2022-09-25T15:53:01.249Z,18.87
2022-09-25T15:55:31.739Z,18.91
2022-09-25T15:58:07.418Z,18.91
2022-09-25T16:00:52.880Z,18.93
2022-09-25T16:03:42.522Z,18.96
2022-09-25T16:06:18.714Z,18.96
2022-09-25T16:08:46.197Z,18.97
2022-09-25T16:11:23.346Z,19.00
2022-09-25T16:13:52.960Z,19.01
2022-09-25T16:16:31.870Z,19.04
2022-09-25T16:19:28.322Z,19.04
2022-09-25T16:21:56.081Z,19.04
2022-09-25T16:24:29.833Z,19.07
2022-09-25T16:27:06.242Z,19.16
2022-09-25T16:29:39.512Z,19.16
2022-09-25T16:32:11.865Z,19.18
2022-09-25T16:34:41.233Z,19.21
2022-09-25T16:37:21.208Z,19.25
2022-09-25T16:40:20.322Z,19.31
2022-09-25T16:42:48.109Z,19.29
2022-09-25T16:45:17.902Z,19.33
2022-09-25T16:47:49.235Z,19.29
2022-09-25T16:50:18.041Z,19.33
2022-09-25T16:52:45.592Z,19.34
2022-09-25T16:55:21.853Z,19.36
2022-09-25T16:57:50.749Z,19.36
2022-09-25T17:00:28.669Z,19.36
2022-09-25T17:02:56.498Z,19.40
2022-09-25T17:05:27.217Z,19.41
2022-09-25T17:07:57.528Z,19.40
2022-09-25T17:10:29.006Z,19.41
2022-09-25T17:12:59.268Z,19.40
2022-09-25T17:15:33.843Z,19.40
2022-09-25T17:18:02.327Z,19.40
2022-09-25T17:20:34.510Z,19.41
2022-09-25T17:23:02.314Z,19.40
2022-09-25T17:25:37.502Z,19.40
2022-09-25T17:28:10.792Z,19.39
2022-09-25T17:30:39.876Z,19.29
2022-09-25T17:33:15.109Z,19.23
2022-09-25T17:35:46.543Z,19.18
2022-09-25T17:38:14.033Z,19.15
2022-09-25T17:40:47.986Z,19.11
2022-09-25T17:43:17.986Z,19.10
2022-09-25T17:45:49.324Z,19.09
2022-09-25T17:48:28.174Z,19.09
2022-09-25T17:50:57.739Z,19.06
2022-09-25T17:53:30.903Z,19.04
2022-09-25T17:56:01.276Z,19.06
2022-09-25T17:58:34.598Z,19.05
2022-09-25T18:01:04.268Z,19.05
2022-09-25T18:03:31.724Z,19.04
2022-09-25T18:05:59.347Z,19.02
2022-09-25T18:08:30.431Z,19.03
2022-09-25T18:10:59.194Z,19.05
2022-09-25T18:13:26.996Z,19.08
2022-09-25T18:15:57.418Z,19.14
2022-09-25T18:18:25.493Z,19.16
2022-09-25T18:21:11.549Z,19.13
2022-09-25T18:23:40.692Z,19.20
2022-09-25T18:26:09.967Z,19.25
2022-09-25T18:28:37.663Z,19.29
2022-09-25T18:31:05.533Z,19.34
2022-09-25T18:33:32.873Z,19.36
2022-09-25T18:36:00.596Z,19.40
2022-09-25T18:38:29.276Z,19.40
2022-09-25T18:40:56.746Z,19.40
2022-09-25T18:43:24.349Z,19.44
2022-09-25T18:45:52.108Z,19.41
2022-09-25T18:48:19.557Z,19.43
2022-09-25T18:50:48.989Z,19.42
2022-09-25T18:53:19.335Z,19.41
2022-09-25T18:55:47.131Z,19.34
2022-09-25T18:58:14.547Z,19.36
2022-09-25T19:00:42.628Z,19.38
2022-09-25T19:03:10.469Z,19.39
2022-09-25T19:05:39.388Z,19.39
2022-09-25T19:08:07.064Z,19.38
2022-09-25T19:10:38.033Z,19.40
2022-09-25T19:13:06.595Z,19.39
2022-09-25T19:15:34.044Z,19.43
2022-09-25T19:18:02.958Z,19.47
2022-09-25T19:20:32.438Z,19.50
2022-09-25T19:23:01.416Z,19.51
2022-09-25T19:25:32.601Z,19.55
2022-09-25T19:28:00.042Z,19.58
2022-09-25T19:30:28.203Z,19.58
2022-09-25T19:32:55.859Z,19.59
2022-09-25T19:35:27.549Z,19.65
2022-09-25T19:37:55.466Z,19.67
2022-09-25T19:40:38.827Z,19.67
2022-09-25T19:43:08.845Z,19.67
2022-09-25T19:45:37.873Z,19.66
2022-09-25T19:48:09.529Z,19.65
2022-09-25T19:50:41.721Z,19.68
2022-09-25T19:53:09.369Z,19.68
2022-09-25T19:55:38.456Z,19.71
2022-09-25T19:58:06.059Z,19.72
2022-09-25T20:00:34.080Z,19.74
2022-09-25T20:03:01.324Z,19.77
2022-09-25T20:05:31.268Z,19.76
2022-09-25T20:08:02.182Z,19.77
2022-09-25T20:10:30.328Z,19.79
2022-09-25T20:12:57.832Z,19.78
2022-09-25T20:15:27.239Z,19.82
2022-09-25T20:17:57.147Z,19.81
2022-09-25T20:20:29.836Z,19.83
2022-09-25T20:22:58.990Z,19.85
2022-09-25T20:25:29.826Z,19.86
2022-09-25T20:28:00.122Z,19.88
2022-09-25T20:30:29.767Z,19.91
2022-09-25T20:32:57.124Z,19.93
2022-09-25T20:35:24.679Z,19.92
2022-09-25T20:37:51.839Z,19.93
2022-09-25T20:40:19.392Z,19.91
2022-09-25T20:42:47.586Z,19.91
2022-09-25T20:45:15.515Z,19.90
2022-09-25T20:47:46.186Z,19.89
2022-09-25T20:50:13.724Z,19.87
2022-09-25T20:52:42.058Z,19.82
2022-09-25T20:55:13.590Z,19.78
2022-09-25T20:57:41.573Z,19.73
2022-09-25T21:00:09.738Z,19.73
2022-09-25T21:02:36.974Z,19.68
2022-09-25T21:05:04.380Z,19.62
2022-09-25T21:07:31.558Z,19.54
2022-09-25T21:09:58.778Z,19.52
2022-09-25T21:12:26.070Z,19.50
2022-09-25T21:14:53.141Z,19.41
2022-09-25T21:17:20.316Z,19.38
2022-09-25T21:19:47.253Z,19.34
2022-09-25T21:22:14.180Z,19.30
2022-09-25T21:24:41.214Z,19.26
2022-09-25T21:27:08.398Z,19.24
2022-09-25T21:29:35.541Z,19.21
2022-09-25T21:32:03.047Z,19.16
2022-09-25T21:34:30.610Z,19.14
2022-09-25T21:36:58.111Z,19.10
2022-09-25T21:39:25.408Z,19.06
2022-09-25T21:41:52.678Z,19.05
2022-09-25T21:44:25.166Z,19.03
2022-09-25T21:46:52.401Z,18.98
2022-09-25T21:49:22.018Z,18.96
2022-09-25T21:51:49.916Z,18.94
2022-09-25T21:54:17.685Z,18.91
2022-09-25T21:56:44.841Z,18.89
2022-09-25T21:59:12.672Z,18.88
2022-09-25T22:01:40.563Z,18.85
2022-09-25T22:04:12.688Z,18.82
2022-09-25T22:06:45.657Z,18.80
2022-09-25T22:09:15.824Z,18.77
2022-09-25T22:11:43.987Z,18.73
2022-09-25T22:14:15.879Z,18.70
2022-09-25T22:16:45.506Z,18.70
2022-09-25T22:19:24.807Z,18.66
2022-09-25T22:21:53.714Z,18.65
2022-09-25T22:24:21.031Z,18.62
2022-09-25T22:26:49.552Z,18.58
2022-09-25T22:29:17.088Z,18.55
2022-09-25T22:31:44.661Z,18.54
2022-09-25T22:34:24.761Z,18.53
2022-09-25T22:36:57.817Z,18.48
2022-09-25T22:39:26.479Z,18.47
2022-09-25T22:41:54.789Z,18.42
2022-09-25T22:44:22.656Z,18.43
2022-09-25T22:46:49.601Z,18.41
2022-09-25T22:49:16.557Z,18.39
2022-09-25T22:51:43.592Z,18.36
2022-09-25T22:54:13.929Z,18.33
2022-09-25T22:56:41.625Z,18.30
2022-09-25T22:59:12.491Z,18.30
2022-09-25T23:01:45.313Z,18.28
2022-09-25T23:04:17.824Z,18.27
2022-09-25T23:06:44.874Z,18.22
2022-09-25T23:09:14.621Z,18.21
2022-09-25T23:11:42.152Z,18.20
2022-09-25T23:14:17.238Z,18.15
2022-09-25T23:16:46.008Z,18.12
2022-09-25T23:19:13.233Z,18.12
2022-09-25T23:21:40.527Z,18.10
2022-09-25T23:24:11.409Z,18.07
2022-09-25T23:26:38.952Z,18.07
2022-09-25T23:29:06.162Z,18.04
2022-09-25T23:31:34.028Z,18.03
2022-09-25T23:34:02.029Z,18.01
2022-09-25T23:36:30.500Z,18.00
2022-09-25T23:39:00.623Z,17.99
2022-09-25T23:41:27.499Z,17.95
2022-09-25T23:43:55.797Z,17.94
2022-09-25T23:46:24.989Z,17.93
2022-09-25T23:48:52.981Z,17.91
2022-09-25T23:51:20.924Z,17.89
2022-09-25T23:53:47.883Z,17.87
2022-09-25T23:56:16.956Z,17.86
2022-09-25T23:58:44.135Z,17.84
